.
WxDataArchive / Data Records for 2015-07-31
2015-07-30 July 2015 2015-08-01

Data Records for Friday, 31 July 2015

Time	Temp	Chill	HIndex	Humid	Dewpt	 Wind 	HiWind	WindDir	Rain 	Barom
-----	----	-----	------	-----	-----	------	------	-------	-----	-----
00:00	68.9	68.9	68.9	67	57.5	0	0	---	0.00	29.969 
00:05	68.8	68.8	68.8	68	57.8	0	0	---	0.00	29.969 
00:10	68.6	68.6	68.6	69	58.0	0	0	---	0.00	29.969 
00:15	68.4	68.4	68.4	70	58.2	0	0	---	0.00	29.972 
00:20	68.3	68.3	68.3	70	58.1	0	0	---	0.00	29.972 
00:25	68.3	68.3	68.3	70	58.1	0	0	---	0.00	29.972 
00:30	68.1	68.1	68.1	70	57.9	0	0	---	0.00	29.973 
00:35	68.1	68.1	68.1	70	57.9	0	0	---	0.00	29.973 
00:40	68.1	68.1	68.1	71	58.3	0	0	---	0.00	29.973 
00:45	68.1	68.1	68.1	71	58.3	0	0	---	0.00	29.969 
00:50	68.1	68.1	68.1	71	58.3	0	0	---	0.00	29.969 
00:55	67.9	67.9	67.9	70	57.7	0	0	---	0.00	29.969 
01:00	67.9	67.9	67.9	70	57.7	0	0	---	0.00	29.968 
01:05	67.9	67.9	67.9	70	57.7	0	0	---	0.00	29.968 
01:10	67.9	67.9	67.9	70	57.7	0	0	---	0.00	29.968 
01:15	68.1	68.1	68.1	69	57.5	0	0	---	0.00	29.964 
01:20	68.4	68.4	68.4	69	57.8	0	1	315	0.00	29.964 
01:25	68.6	68.6	68.6	68	57.6	0	0	---	0.00	29.964 
01:30	68.8	68.8	68.8	67	57.4	0	0	---	0.00	29.963 
01:35	68.8	68.8	68.8	68	57.8	0	0	---	0.00	29.963 
01:40	68.9	68.9	68.9	68	57.9	0	0	---	0.00	29.963 
01:45	68.9	68.9	68.9	68	57.9	0	0	---	0.00	29.962 
01:50	68.9	68.9	68.9	68	57.9	0	0	---	0.00	29.962 
01:55	68.9	68.9	68.9	68	57.9	0	0	---	0.00	29.962 
02:00	68.9	68.9	68.9	69	58.3	0	0	---	0.00	29.961 
02:05	68.8	68.8	68.8	69	58.2	0	0	---	0.00	29.961 
02:10	68.8	68.8	68.8	69	58.2	0	0	---	0.00	29.961 
02:15	68.6	68.6	68.6	69	58.0	0	1	315	0.00	29.959 
02:20	68.6	68.6	68.6	70	58.4	0	0	---	0.00	29.959 
02:25	68.6	68.6	68.6	71	58.8	0	1	315	0.00	29.959 
02:30	68.8	68.8	68.8	71	59.0	0	0	---	0.00	29.958 
02:35	68.8	68.8	68.8	71	59.0	0	0	---	0.00	29.958 
02:40	68.8	68.8	68.8	71	59.0	0	0	---	0.00	29.958 
02:45	68.8	68.8	68.8	72	59.4	0	0	---	0.00	29.956 
02:50	68.6	68.6	68.6	72	59.2	0	0	---	0.00	29.956 
02:55	68.6	68.6	68.6	73	59.6	0	0	---	0.00	29.956 
03:00	68.4	68.4	68.4	73	59.4	0	0	---	0.00	29.953 
03:05	68.4	68.4	68.4	73	59.4	0	0	---	0.00	29.953 
03:10	68.3	68.3	68.3	74	59.7	0	0	---	0.00	29.953 
03:15	68.3	68.3	68.3	74	59.7	0	0	---	0.00	29.949 
03:20	68.3	68.3	68.3	74	59.7	0	0	---	0.00	29.949 
03:25	68.1	68.1	68.1	75	59.9	0	1	315	0.00	29.949 
03:30	68.1	68.1	68.1	75	59.9	0	0	---	0.00	29.950 
03:35	68.3	68.3	68.3	74	59.7	0	1	315	0.00	29.950 
03:40	68.4	68.4	68.4	74	59.8	0	1	315	0.00	29.950 
03:45	68.4	68.4	68.4	74	59.8	0	1	315	0.00	29.950 
03:50	68.4	68.4	68.4	74	59.8	0	0	---	0.00	29.950 
03:55	68.4	68.4	68.4	74	59.8	0	0	---	0.00	29.950 
04:00	68.3	68.3	68.3	75	60.1	0	0	---	0.00	29.949 
04:05	68.3	68.3	68.3	75	60.1	0	1	315	0.00	29.949 
04:10	68.1	68.1	68.1	75	59.9	0	0	---	0.00	29.949 
04:15	68.1	68.1	68.1	75	59.9	0	2	315	0.00	29.949 
04:20	68.1	68.1	68.1	75	59.9	0	1	315	0.00	29.949 
04:25	68.1	68.1	68.1	75	59.9	0	1	315	0.00	29.949 
04:30	68.1	68.1	68.1	75	59.9	0	1	315	0.00	29.949 
04:35	68.3	68.3	68.3	75	60.1	0	1	315	0.00	29.949 
04:40	68.3	68.3	68.3	75	60.1	0	1	315	0.00	29.949 
04:45	68.3	68.3	68.3	75	60.1	0	1	315	0.00	29.946 
04:50	68.3	68.3	68.3	75	60.1	0	2	315	0.00	29.946 
04:55	68.3	68.3	68.3	75	60.1	0	1	315	0.00	29.946 
05:00	68.3	68.3	68.3	76	60.4	0	3	315	0.00	29.945 
05:05	68.3	68.3	68.3	76	60.4	0	2	315	0.00	29.945 
05:10	68.3	68.3	68.3	76	60.4	0	1	315	0.00	29.945 
05:15	68.3	68.3	68.3	76	60.4	0	2	315	0.00	29.945 
05:20	68.1	68.1	68.1	77	60.6	0	2	315	0.00	29.945 
05:25	67.9	67.9	67.9	77	60.4	0	2	315	0.00	29.945 
05:30	68.1	68.1	68.1	77	60.6	1	3	315	0.00	29.943 
05:35	68.1	68.1	68.1	77	60.6	1	3	315	0.00	29.943 
05:40	68.1	68.1	68.1	77	60.6	1	3	315	0.00	29.943 
05:45	67.9	67.9	67.9	77	60.4	1	3	315	0.00	29.945 
05:50	67.8	67.8	67.8	77	60.3	0	1	315	0.00	29.945 
05:55	67.6	67.6	67.6	78	60.5	0	1	315	0.00	29.945 
06:00	67.4	67.4	67.4	78	60.3	0	1	315	0.00	29.945 
06:05	67.3	67.3	67.3	79	60.6	0	1	315	0.00	29.945 
06:10	67.1	67.1	67.1	79	60.4	0	1	315	0.00	29.945 
06:15	66.9	66.9	66.9	80	60.5	0	1	315	0.00	29.947 
06:20	66.9	66.9	66.9	80	60.5	0	1	315	0.00	29.947 
06:25	66.8	66.8	66.8	80	60.4	0	1	315	0.00	29.947 
06:30	66.6	66.6	66.6	81	60.6	0	1	315	0.00	29.946 
06:35	66.6	66.6	66.6	81	60.6	0	1	315	0.00	29.946 
06:40	66.4	66.4	66.4	81	60.4	0	1	315	0.00	29.946 
06:45	66.4	66.4	66.4	81	60.4	0	1	315	0.00	29.947 
06:50	66.3	66.3	66.3	82	60.6	0	1	315	0.00	29.947 
06:55	66.3	66.3	66.3	82	60.6	0	1	315	0.00	29.947 
07:00	66.3	66.3	66.3	82	60.6	0	1	315	0.00	29.948 
07:05	66.3	66.3	66.3	82	60.6	0	1	315	0.00	29.948 
07:10	66.3	66.3	66.3	83	61.0	0	1	315	0.00	29.948 
07:15	66.4	66.4	66.4	83	61.1	0	3	315	0.00	29.953 
07:20	66.6	66.6	66.6	82	60.9	1	2	315	0.00	29.953 
07:25	66.8	66.8	66.8	82	61.1	0	2	315	0.00	29.953 
07:30	66.9	66.9	66.9	82	61.2	1	4	315	0.00	29.955 
07:35	67.3	67.3	67.3	81	61.3	1	3	292	0.00	29.955 
07:40	67.6	67.6	67.6	81	61.6	1	4	292	0.00	29.955 
07:45	67.8	67.8	67.8	80	61.4	1	3	292	0.00	29.961 
07:50	68.1	68.1	68.1	80	61.7	1	3	292	0.00	29.961 
07:55	68.4	68.4	68.4	79	61.6	1	5	292	0.00	29.961 
08:00	68.8	68.8	68.8	78	61.7	1	3	270	0.00	29.961 
08:05	69.1	69.1	69.1	77	61.6	1	3	270	0.00	29.961 
08:10	69.6	69.6	69.6	77	62.1	1	3	270	0.00	29.961 
08:15	69.9	69.9	69.9	75	61.6	1	4	270	0.00	29.965 
08:20	70.3	70.3	70.3	75	62.0	1	3	270	0.00	29.965 
08:25	70.6	70.6	70.6	74	61.9	1	3	270	0.00	29.965 
08:30	70.9	70.9	70.9	73	61.8	1	3	270	0.00	29.968 
08:35	71.3	71.3	71.3	73	62.2	1	3	270	0.00	29.968 
08:40	71.6	71.6	71.6	71	61.7	2	4	270	0.00	29.968 
08:45	72.0	72.0	72.0	70	61.7	2	4	270	0.00	29.970 
08:50	72.3	72.3	72.3	70	62.0	2	3	270	0.00	29.970 
08:55	72.5	72.5	72.5	69	61.7	2	4	270	0.00	29.970 
09:00	72.8	72.8	72.8	68	61.6	2	4	270	0.00	29.969 
09:05	73.2	73.2	73.2	69	62.4	1	4	270	0.00	29.969 
09:10	73.5	73.5	73.5	67	61.9	1	3	270	0.00	29.969 
09:15	73.9	73.9	73.9	66	61.8	1	3	270	0.00	29.972 
09:20	74.2	74.2	74.2	65	61.7	1	4	270	0.00	29.972 
09:25	74.6	74.6	74.6	65	62.0	1	3	270	0.00	29.972 
09:30	74.9	74.9	74.9	65	62.3	1	3	270	0.00	29.972 
09:35	75.1	75.1	77.1	65	62.5	1	3	270	0.00	29.972 
09:40	75.4	75.4	77.5	63	61.9	1	4	270	0.00	29.972 
09:45	75.6	75.6	77.6	64	62.5	1	4	270	0.00	29.971 
09:50	76.0	76.0	77.9	64	62.9	1	2	270	0.00	29.971 
09:55	76.1	76.1	78.0	62	62.1	1	3	270	0.00	29.971 
10:00	76.5	76.5	78.3	63	62.9	1	2	270	0.00	29.966 
10:05	76.8	76.8	78.6	61	62.3	1	2	270	0.00	29.966 
10:10	77.0	77.0	78.8	61	62.5	1	3	270	0.00	29.966 
10:15	77.4	77.4	79.1	60	62.4	1	3	270	0.00	29.963 
10:20	77.7	77.7	79.4	59	62.2	1	3	270	0.00	29.963 
10:25	78.1	78.1	79.7	58	62.1	1	3	270	0.00	29.963 
10:30	78.5	78.5	80.0	57	62.0	1	3	270	0.00	29.959 
10:35	78.8	78.8	80.3	57	62.3	1	2	270	0.00	29.959 
10:40	79.4	79.4	80.9	58	63.3	0	2	270	0.00	29.959 
10:45	79.9	79.9	81.2	55	62.3	0	2	270	0.00	29.953 
10:50	80.1	80.1	81.2	53	61.4	1	2	270	0.00	29.953 
10:55	80.5	80.5	81.7	54	62.3	0	2	270	0.00	29.953 
11:00	80.7	80.7	81.6	51	60.9	2	4	270	0.00	29.949 
11:05	80.7	80.7	81.3	49	59.7	2	4	270	0.00	29.949 
11:10	81.1	81.1	81.7	49	60.1	2	4	270	0.00	29.949 
11:15	81.1	81.1	81.7	49	60.1	3	5	270	0.00	29.954 
11:20	81.4	81.4	82.1	50	60.9	1	3	270	0.00	29.954 
11:25	81.6	81.6	82.1	48	60.0	1	5	270	0.00	29.954 
11:30	82.0	82.0	82.5	48	60.3	1	4	270	0.00	29.949 
11:35	82.4	82.4	82.7	47	60.1	1	3	270	0.00	29.949 
11:40	82.6	82.6	83.1	48	60.9	1	4	270	0.00	29.949 
11:45	82.8	82.8	83.0	46	59.9	1	4	270	0.00	29.947 
11:50	82.8	82.8	82.3	41	56.7	2	6	270	0.00	29.947 
11:55	82.8	82.8	82.3	41	56.7	3	7	270	0.00	29.947 
12:00	83.0	83.0	82.5	41	56.8	3	6	292	0.00	29.948 
12:05	83.0	83.0	82.8	43	58.2	3	5	292	0.00	29.948 
12:10	83.2	83.2	82.7	41	57.0	3	7	270	0.00	29.948 
12:15	83.4	83.4	82.9	41	57.2	2	5	292	0.00	29.949 
12:20	83.4	83.4	83.0	42	57.9	3	6	292	0.00	29.949 
12:25	83.4	83.4	83.0	42	57.9	4	9	292	0.00	29.949 
12:30	83.2	83.2	83.0	43	58.3	3	7	292	0.00	29.946 
12:35	83.2	83.2	83.3	45	59.6	3	9	292	0.00	29.946 
12:40	83.8	83.8	83.7	44	59.5	2	5	292	0.00	29.946 
12:45	83.8	83.8	83.7	44	59.5	2	7	292	0.00	29.934 
12:50	83.6	83.6	83.5	44	59.3	3	7	270	0.00	29.934 
12:55	83.6	83.6	83.0	41	57.4	3	9	292	0.00	29.934 
13:00	83.8	83.8	82.9	39	56.2	3	6	315	0.00	29.930 
13:05	84.1	84.1	84.3	45	60.4	2	5	292	0.00	29.930 
13:10	84.5	84.5	83.6	39	56.8	3	7	270	0.00	29.930 
13:15	84.5	84.5	83.6	39	56.8	3	7	270	0.00	29.921 
13:20	84.5	84.5	83.6	39	56.8	3	9	270	0.00	29.921 
13:25	84.7	84.7	83.7	38	56.2	3	6	270	0.00	29.921 
13:30	84.7	84.7	83.8	39	57.0	2	6	292	0.00	29.916 
13:35	84.7	84.7	83.7	38	56.2	3	6	292	0.00	29.916 
13:40	84.5	84.5	83.2	36	54.6	4	6	270	0.00	29.916 
13:45	84.7	84.7	83.7	38	56.2	2	6	292	0.00	29.911 
13:50	84.9	84.9	83.7	37	55.7	3	6	270	0.00	29.911 
13:55	85.1	85.1	84.1	38	56.6	2	6	270	0.00	29.911 
14:00	85.3	85.3	84.5	39	57.5	2	6	270	0.00	29.898 
14:05	85.7	85.7	85.1	40	58.6	1	6	292	0.00	29.898 
14:10	85.9	85.9	85.3	40	58.7	1	4	292	0.00	29.898 
14:15	85.9	85.9	86.0	43	60.8	1	6	270	0.00	29.892 
14:20	86.1	86.1	86.0	42	60.3	2	7	270	0.00	29.892 
14:25	85.9	85.9	86.0	43	60.8	2	7	270	0.00	29.892 
14:30	85.9	85.9	85.7	42	60.1	2	5	270	0.00	29.881 
14:35	85.3	85.3	85.2	43	60.2	1	5	270	0.00	29.881 
14:40	84.5	84.5	84.7	45	60.8	1	3	270	0.00	29.881 
14:45	83.8	83.8	84.1	46	60.8	2	5	270	0.00	29.879 
14:50	83.4	83.4	83.8	47	61.0	1	3	270	0.00	29.879 
14:55	83.2	83.2	83.4	46	60.2	1	4	270	0.00	29.879 
15:00	82.6	82.6	83.0	47	60.3	2	6	270	0.00	29.884 
15:05	82.2	82.2	82.7	48	60.5	3	7	270	0.00	29.884 
15:10	82.0	82.0	82.8	50	61.5	2	6	270	0.00	29.884 
15:15	81.4	81.4	82.4	52	62.1	2	9	270	0.00	29.898 
15:20	78.3	78.3	80.1	63	64.6	4	11	270	0.00	29.898 
15:25	74.6	74.6	74.6	76	66.5	3	7	270	0.14	29.898 
15:30	72.0	72.0	72.0	80	65.5	1	3	270	0.05	29.907 
15:35	70.8	70.8	70.8	84	65.7	0	1	270	0.00	29.907 
15:40	70.9	70.9	70.9	87	66.8	0	1	270	0.00	29.907 
15:45	71.1	71.1	71.1	88	67.4	0	1	270	0.00	29.893 
15:50	71.5	71.5	71.5	89	68.1	0	2	270	0.00	29.893 
15:55	72.0	72.0	72.0	90	68.9	0	3	292	0.00	29.893 
16:00	72.8	72.8	72.8	90	69.7	1	5	270	0.00	29.888 
16:05	73.7	73.7	73.7	90	70.6	1	3	270	0.00	29.888 
16:10	74.0	74.0	74.0	88	70.2	0	2	270	0.00	29.888 
16:15	74.7	74.7	74.7	87	70.6	0	4	270	0.00	29.882 
16:20	75.4	75.4	75.8	83	69.9	1	3	270	0.00	29.882 
16:25	76.3	76.3	77.4	81	70.0	1	4	270	0.00	29.882 
16:30	76.8	76.8	78.4	76	68.6	1	3	270	0.00	29.875 
16:35	77.6	77.6	79.6	74	68.6	1	4	270	0.00	29.875 
16:40	78.5	78.5	80.8	71	68.3	2	4	270	0.00	29.875 
16:45	79.2	79.2	81.7	70	68.5	1	4	270	0.00	29.870 
16:50	79.9	79.9	82.5	67	67.9	1	3	270	0.00	29.870 
16:55	80.7	80.7	83.2	64	67.4	1	5	270	0.00	29.870 
17:00	80.9	80.9	82.9	60	65.7	2	5	270	0.00	29.864 
17:05	81.4	81.4	83.9	62	67.1	0	2	338	0.00	29.864 
17:10	82.0	82.0	84.4	60	66.7	1	5	338	0.00	29.864 
17:15	82.2	82.2	83.6	54	63.9	2	4	270	0.00	29.860 
17:20	82.6	82.6	84.3	55	64.8	1	3	270	0.00	29.860 
17:25	82.8	82.8	83.8	51	62.8	2	5	315	0.00	29.860 
17:30	82.4	82.4	82.9	48	60.7	2	6	270	0.00	29.857 
17:35	82.6	82.6	81.2	33	50.6	3	6	315	0.00	29.857 
17:40	83.4	83.4	81.8	33	51.2	3	5	270	0.00	29.857 
17:45	83.6	83.6	81.8	31	49.7	3	6	270	0.00	29.858 
17:50	84.0	84.0	82.1	31	50.1	2	4	292	0.00	29.858 
17:55	84.0	84.0	82.0	30	49.2	2	6	270	0.00	29.858 
18:00	84.0	84.0	81.9	29	48.3	2	8	292	0.00	29.860 
18:05	83.6	83.6	81.6	29	48.0	3	7	292	0.00	29.860 
18:10	83.2	83.2	81.2	28	46.7	3	5	270	0.00	29.860 
18:15	83.2	83.2	81.4	30	48.5	2	5	315	0.00	29.859 
18:20	83.2	83.2	81.5	31	49.4	3	6	270	0.00	29.859 
18:25	83.0	83.0	81.2	30	48.3	2	5	338	0.00	29.859 
18:30	83.0	83.0	81.3	31	49.2	2	5	270	0.00	29.857 
18:35	83.0	83.0	81.3	31	49.2	3	6	292	0.00	29.857 
18:40	82.8	82.8	81.2	32	49.9	2	5	270	0.00	29.857 
18:45	82.8	82.8	81.2	32	49.9	2	4	270	0.00	29.856 
18:50	82.8	82.8	81.4	34	51.5	2	4	270	0.00	29.856 
18:55	82.8	82.8	81.3	33	50.7	2	5	270	0.00	29.856 
19:00	82.8	82.8	81.3	33	50.7	2	6	270	0.00	29.856 
19:05	82.6	82.6	81.4	35	52.1	2	4	315	0.00	29.856 
19:10	82.4	82.4	81.2	35	52.0	2	5	338	0.00	29.856 
19:15	82.4	82.4	81.2	35	52.0	2	5	292	0.00	29.853 
19:20	82.4	82.4	81.2	35	52.0	3	7	270	0.00	29.853 
19:25	82.4	82.4	81.3	36	52.7	2	4	270	0.00	29.853 
19:30	82.2	82.2	81.3	37	53.3	1	2	270	0.00	29.853 
19:35	82.2	82.2	81.3	37	53.3	1	3	270	0.00	29.853 
19:40	82.0	82.0	81.3	39	54.6	1	4	270	0.00	29.853 
19:45	81.8	81.8	81.2	39	54.4	1	7	270	0.00	29.853 
19:50	81.4	81.4	80.8	38	53.3	2	5	270	0.00	29.853 
19:55	81.2	81.2	80.7	39	53.9	2	5	292	0.00	29.853 
20:00	80.9	80.9	80.5	39	53.6	2	4	292	0.00	29.853 
20:05	80.5	80.5	80.2	39	53.2	2	6	270	0.00	29.853 
20:10	80.1	80.1	80.0	40	53.6	1	4	270	0.00	29.853 
20:15	79.9	79.9	79.9	41	54.1	1	5	270	0.00	29.852 
20:20	79.8	79.8	80.0	42	54.6	1	3	270	0.00	29.852 
20:25	79.6	79.6	79.8	42	54.5	1	3	270	0.00	29.852 
20:30	79.4	79.4	79.8	43	54.9	1	4	270	0.00	29.853 
20:35	79.4	79.4	79.8	43	54.9	1	4	292	0.00	29.853 
20:40	79.0	79.0	79.6	44	55.2	1	3	292	0.00	29.853 
20:45	78.6	78.6	79.3	44	54.8	1	4	292	0.00	29.856 
20:50	78.3	78.3	79.1	44	54.6	1	4	292	0.00	29.856 
20:55	78.1	78.1	79.0	45	55.0	1	3	292	0.00	29.856 
21:00	77.7	77.7	78.8	45	54.6	1	3	292	0.00	29.862 
21:05	77.6	77.6	78.8	46	55.2	1	3	292	0.00	29.862 
21:10	77.2	77.2	78.6	46	54.8	1	4	292	0.00	29.862 
21:15	76.8	76.8	78.4	46	54.4	1	3	292	0.00	29.865 
21:20	76.7	76.7	78.3	46	54.3	1	3	292	0.00	29.865 
21:25	76.5	76.5	78.2	46	54.2	1	2	292	0.00	29.865 
21:30	76.1	76.1	78.0	46	53.8	1	4	292	0.00	29.869 
21:35	76.0	76.0	78.0	46	53.7	1	3	292	0.00	29.869 
21:40	75.8	75.8	77.9	46	53.5	0	2	292	0.00	29.869 
21:45	75.4	75.4	77.8	47	53.7	0	1	292	0.00	29.878 
21:50	75.3	75.3	77.7	47	53.7	0	2	292	0.00	29.878 
21:55	74.9	74.9	74.9	47	53.3	0	1	292	0.00	29.878 
22:00	74.7	74.7	74.7	48	53.7	0	1	292	0.00	29.883 
22:05	74.4	74.4	74.4	49	54.0	0	1	292	0.00	29.883 
22:10	74.2	74.2	74.2	49	53.8	0	1	292	0.00	29.883 
22:15	73.9	73.9	73.9	50	54.1	0	1	292	0.00	29.885 
22:20	73.7	73.7	73.7	50	53.9	0	1	292	0.00	29.885 
22:25	73.3	73.3	73.3	50	53.5	0	1	292	0.00	29.885 
22:30	73.2	73.2	73.2	50	53.4	0	1	292	0.00	29.890 
22:35	73.0	73.0	73.0	51	53.8	0	1	292	0.00	29.890 
22:40	72.8	72.8	72.8	51	53.6	0	0	---	0.00	29.890 
22:45	72.5	72.5	72.5	53	54.4	0	0	---	0.00	29.896 
22:50	72.1	72.1	72.1	54	54.5	0	0	---	0.00	29.896 
22:55	71.8	71.8	71.8	56	55.2	0	0	---	0.00	29.896 
23:00	71.5	71.5	71.5	55	54.5	0	0	---	0.00	29.900 
23:05	70.9	70.9	70.9	55	53.9	0	0	---	0.00	29.900 
23:10	70.4	70.4	70.4	56	53.9	0	0	---	0.00	29.900 
23:15	69.9	69.9	69.9	57	54.0	0	0	---	0.00	29.900 
23:20	69.6	69.6	69.6	58	54.2	0	0	---	0.00	29.900 
23:25	69.3	69.3	69.3	59	54.3	0	0	---	0.00	29.900 
23:30	68.9	68.9	68.9	60	54.4	0	0	---	0.00	29.901 
23:35	68.6	68.6	68.6	60	54.1	0	0	---	0.00	29.901 
23:40	68.4	68.4	68.4	61	54.4	0	0	---	0.00	29.901 
23:45	68.1	68.1	68.1	62	54.6	0	0	---	0.00	29.902 
23:50	67.8	67.8	67.8	63	54.7	0	0	---	0.00	29.902 
23:55	67.4	67.4	67.4	64	54.8	0	0	---	0.00	29.902 

CoCoRaHS
IN-AL-39
A2 Web Hosting
Creative Commons License
GoDaddy
search engine by freefind advanced

loaded 2018-11-13 18:14:06 • last modified 2010-11-18 10:43:29
Privacy PolicyDisclaimer
• wx.awcolley.com is powered by PmWiki v.2002016 •
• all content (unless otherwise noted) © 2018 A W Colley